logo tempoitalia

Diretta Meteo Uljanovsk, Russialunedì 31 agosto ore 08:00

Mappa
Sereno 16 °C Nuvoloso 24 Ore: T.min 9 T.max 19
Ponente Sud Km/h 14.4 Punto di rugiada: 11 °C Umidità: 72% Visibilità: 10 Km
Il sole sorge alle: 04:52 Il sole tramonta alle: 18:41
31 Agosto 2026 08:00 tempo osservato: Nuvoloso Nuvoloso 16 72 1022 vento: Nord S 14.4
31 Agosto 2026 07:30 tempo osservato: Nuvoloso Nuvoloso 15 72 1022 vento: Nord S 14.4
31 Agosto 2026 07:00 tempo osservato: Nuvoloso Nuvoloso 12 87 1022 vento: Nord S/SO 14.4
31 Agosto 2026 06:30 tempo osservato: Nuvoloso Nuvoloso 11 87 1022 vento: Nord S/SO 10.8
31 Agosto 2026 06:00 tempo osservato: Nuvoloso Nuvoloso 11 87 1022 vento: Nord S/SO 10.8
31 Agosto 2026 05:30 tempo osservato: Nuvoloso Nuvoloso 10 87 1022 vento: Nord S/SO 10.8
31 Agosto 2026 05:00 tempo osservato: Nuvoloso Nuvoloso 11 81 1022 vento: Nord S/SO 10.8
31 Agosto 2026 04:30 tempo osservato: Sereno Sereno 11 87 1022 vento: Nord S 10.8
31 Agosto 2026 04:00 tempo osservato: Sereno Sereno 10 87 1022 vento: Nord S 10.8
31 Agosto 2026 03:30 tempo osservato: Sereno Sereno 10 87 1023 vento: Nord S 10.8
31 Agosto 2026 03:00 tempo osservato: Sereno Sereno 10 87 1023 vento: Nord S 10.8
31 Agosto 2026 02:30 tempo osservato: Sereno Sereno 10 87 1023 vento: Nord S 14.4
31 Agosto 2026 02:00 tempo osservato: Sereno Sereno 9 87 1023 vento: Nord S 10.8
31 Agosto 2026 01:30 tempo osservato: Sereno Sereno 10 87 1023 vento: Nord N 7.2
31 Agosto 2026 01:00 tempo osservato: Sereno Sereno 10 87 1023 vento: Nord S 10.8
31 Agosto 2026 00:30 tempo osservato: Sereno Sereno 10 87 1023 vento: Nord N 7.2
31 Agosto 2026 00:00 tempo osservato: Sereno Sereno 10 81 1023 vento: Nord N 7.2
30 Agosto 2026 23:30 tempo osservato: Sereno Sereno 10 81 1023 vento: Nord N 7.2
30 Agosto 2026 23:00 tempo osservato: Sereno Sereno 9 87 1023 vento: Nord N 7.2
30 Agosto 2026 22:30 tempo osservato: Sereno Sereno 9 87 1023 vento: Nord N 7.2
30 Agosto 2026 22:00 tempo osservato: Sereno Sereno 11 76 1023 vento: Nord N 7.2
30 Agosto 2026 21:30 tempo osservato: Sereno Sereno 11 76 1023 vento: Nord O 14.4
30 Agosto 2026 21:00 tempo osservato: Sereno Sereno 11 76 1023 vento: Nord O 18
30 Agosto 2026 20:30 tempo osservato: Sereno Sereno 11 71 1023 vento: Nord O 10.8
30 Agosto 2026 20:00 tempo osservato: Sereno Sereno 12 66 1023 vento: Nord O 10.8
30 Agosto 2026 19:30 tempo osservato: Sereno Sereno 13 62 1023 vento: Nord O 10.8
30 Agosto 2026 19:00 tempo osservato: Sereno Sereno 14 62 1022 vento: Nord O 10.8
30 Agosto 2026 18:30 tempo osservato: Sereno Sereno 17 51 1022 vento: Nord N 7.2
30 Agosto 2026 18:00 tempo osservato: Sereno Sereno 18 45 1022 vento: Nord N 7.2
30 Agosto 2026 17:30 tempo osservato: Sereno Sereno 18 48 1022 vento: Nord NO 10.8
30 Agosto 2026 17:00 tempo osservato: Sereno Sereno 19 39 1022 vento: Nord N/NO 14.4
30 Agosto 2026 16:30 tempo osservato: Sereno Sereno 19 39 1022 vento: Nord O/NO 14.4
30 Agosto 2026 16:00 tempo osservato: Sereno Sereno 19 39 1023 vento: Nord NO 14.4
30 Agosto 2026 15:30 tempo osservato: Sereno Sereno 19 39 1023 vento: Nord NO 14.4
30 Agosto 2026 15:00 tempo osservato: Sereno Sereno 19 37 1023 vento: Nord O/NO 14.4
30 Agosto 2026 14:30 tempo osservato: Sereno Sereno 19 37 1023 vento: Nord NO 18
30 Agosto 2026 14:00 tempo osservato: Sereno Sereno 19 37 1024 vento: Nord NO 18
30 Agosto 2026 13:30 tempo osservato: Sereno Sereno 19 37 1024 vento: Nord NO 18
30 Agosto 2026 13:00 tempo osservato: Sereno Sereno 19 37 1024 vento: Nord NO 18
30 Agosto 2026 12:30 tempo osservato: Nuvoloso Nuvoloso 18 39 1024 vento: Nord O/NO 18
30 Agosto 2026 12:00 tempo osservato: Nuvoloso Nuvoloso 18 39 1024 vento: Nord N/NO 14.4
30 Agosto 2026 11:30 tempo osservato: Nuvoloso Nuvoloso 17 41 1024 vento: Nord N/NO 14.4
30 Agosto 2026 11:00 tempo osservato: Nuvoloso Nuvoloso 18 39 1024 vento: Nord O/NO 14.4
30 Agosto 2026 10:30 tempo osservato: Nuvoloso Nuvoloso 17 45 1024 vento: Nord O/NO 18
30 Agosto 2026 10:00 tempo osservato: Poco Nuvoloso Poco Nuvoloso 16 51 1024 vento: Nord O/NO 14.4
30 Agosto 2026 09:30 tempo osservato: Sereno Sereno 16 58 1025 vento: Nord O/NO 10.8
30 Agosto 2026 09:00 tempo osservato: Sereno Sereno 14 62 1025 vento: Nord N 7.2